West Point, Iowa
Current Conditions -  °F | °C
As of 8:35 AM on Friday 28 Nov 2014 (Local Time) from KFSW Reporting Station
Clear Clear  
Wind Chill: -11°   Ceiling: Unl
Heat Index: -4°   Visibility: 10mi
Dew Point: -7°   Wind: 14mph
Humidity: 80%   Direction: 160°SSE
Pressure: 30.08"   Gusts: 23mph
Location:  40.72°N, 91.45°W
Report Text: KFSW 281435Z AUTO 16012G20KT 10SM CLR M04/M07 A3008 RMK AO2
Loading
Personal Weather Stations






























Interactive Weather Map New forecast layout! Learn more

10-Day Weather Forecast

Advertisements
Track Severe Weather on mobile